Vesper, Wisconsin
Current Conditions -  °F | °C
As of 10:54 AM on Thursday 30 Oct 2014 (Local Time) from KISW Reporting Station
Broken Clouds Broken Clouds  
Wind Chill: 40°   Ceiling: 9000
Heat Index: 43°   Visibility: 10mi
Dew Point: 34°   Wind: 5mph
Humidity: 71%   Direction: 240°WSW
Pressure: 30.09"   Gusts: NA
Location:  44.48°N, 89.96°W
Report Text: KISW 301554Z AUTO 24004KT 10SM BKN090 06/01 A3009 RMK AO2 SLP198 T00610011
Loading
Personal Weather Stations






























Interactive Weather Map
Tropical Storm Tracking
New forecast layout! Learn more

10-Day Weather Forecast

Advertisements
Track Severe Weather on mobile